Archival Weather

Vermilion Rgnl

Danville, Illinois (KDNV)

Report from: Tuesday, March 26, 2024 8:55 AM CDT
Current time: Sunday, July 14, 2024 5:42 AM CDT

Current weather – Weather history – Daily summaries
Weather forecast

Temperature13.7°C (56.7°F)
Dew point11.0°C (51.8°F)
Winds 17 kts (8.7 m/s, 19.6 mph) South (190°)
Wind gusts 26 kts (13.4 m/s, 29.9 mph)
Visibility10 mi. (16.1 km)
Clouds Ceiling: Overcast 1,500 ft. (457 m)
Altimeter29.52 in.Hg (1000 mB)
Relative humidity84 %
Density altitude493 ft. (150 m)
Remarks Fully automated report
Automated weather observing station with precipitation discriminator
Flight conditions Marginal Visual Meteorological Conditions
Raw dataKDNV 261355Z AUTO 19017G26KT 10SM OVC015 14/11 A2952 RMK AO2 T01370110
An error has occurred. This application may no longer respond until reloaded. Reload 🗙